KDRA/DRA METAR and TAF weather

Enter ICAO airport designator
Station Type Date Time Source
KDRA METAR 2019/02/20 22:56 UTC NOAA

KDRA 202256Z AUTO 14008KT 10SM FEW060 BKN070 BKN095 06/M07 A2965 RMK AO2 SLP037 T00611072


Station Type Date Time Source
KDRA Decoded METAR 2019/02/20 22:56 UTC NOAA

DESERT ROCK AIRPORT, NV, United States (KDRA) 36-38N 116-02W 1006M
Feb 20, 2019 - 05:56 PM EST / 2019.02.20 2256 UTC
Wind: from the SE (140 degrees) at 9 MPH (8 KT):0
Visibility: 10 mile(s):0
Sky conditions: mostly cloudy
Temperature: 43.0 F (6.1 C)
Dew Point: 19.0 F (-7.2 C)
Relative Humidity: 37%
Pressure (altimeter): 29.65 in. Hg (1004 hPa)
ob: KDRA 202256Z AUTO 14008KT 10SM FEW060 BKN070 BKN095 06/M07 A2965 RMK AO2 SLP037 T00611072
cycle: 23

Station Type Date Time Source
KDRA TAF 2011/12/07 06:36 UTC NOAA

TAF KDRA 070532Z 0706/0806 VRB04KT P6SM SKC


Example: see airport list